tititudorancea.com
Station Historical Data
Daily Summary for March 31, 2018 Units:  Metric    English   Both
« Previous Day
Next Day »
Daily Weekly Monthly Yearly Custom
  High: Low: Average:
Temperature: -17.8 °C 8.7 °C 14.4 °C
Dew Point: -17.8 °C 6.1 °C 7.8 °C
Humidity: Humidity % 36 % 68 %
Wind Speed: 0 km/h 0 km/h 3.5 km/h
Wind Gust: 0 km/h - -
Wind:- - SSW
Pressure: 0 hPa 1013.8 hPa -
Precipitation: 0.25 mm    
Historical Graphs
 
 
Ararat weather Find more about Weather in Ararat, AU


 



 


Tabular Data for March 31, 2018
Time Temperature Dew Point Pressure Wind Wind Speed Wind Gust Humidity Rainfall Rate (Hourly)
-17.8 °C -17.8 °C 0 hPa Calm     Humidity % 0 mm
00:04 11.2 °C 8.7 °C 1018.5 hPa SSE 3.9 km/h 7.4 km/h 85 % 0 mm
00:09 11.1 °C 8.6 °C 1018.5 hPa SSE 3.2 km/h 6.4 km/h 85 % 0 mm
00:14 11 °C 8.6 °C 1018.5 hPa SSE 4.8 km/h 5.6 km/h 85 % 0 mm
00:19 10.9 °C 8.7 °C 1018.5 hPa SSE 2.3 km/h 3.7 km/h 86 % 0 mm
00:24 10.9 °C 8.6 °C 1018.5 hPa SSE 4.2 km/h 9.7 km/h 86 % 0 mm
00:29 10.8 °C 8.6 °C 1018.5 hPa SSE 4.7 km/h 8 km/h 86 % 0 mm
00:34 10.8 °C 8.8 °C 1018.5 hPa SSE 5.6 km/h 7.4 km/h 87 % 0 mm
00:39 10.8 °C 8.7 °C 1018.5 hPa SSE 6 km/h 7.4 km/h 87 % 0 mm
00:44 10.7 °C 8.7 °C 1018.5 hPa SSE 3.1 km/h 7.4 km/h 87 % 0 mm
00:49 10.7 °C 8.6 °C 1018.5 hPa SSE 6.3 km/h 7.4 km/h 87 % 0 mm
00:54 10.7 °C 8.6 °C 1018.5 hPa SSE 3.9 km/h 5.6 km/h 87 % 0 mm
00:59 10.6 °C 8.6 °C 1018.5 hPa SSE 2.3 km/h 6.4 km/h 87 % 0 mm
01:04 10.6 °C 8.7 °C 1018.5 hPa SSE 3.1 km/h 5.6 km/h 88 % 0 mm
01:09 10.6 °C 8.7 °C 1018.5 hPa SSE 4.8 km/h 7.4 km/h 88 % 0 mm
01:14 10.6 °C 8.7 °C 1018.5 hPa SSE 1.9 km/h 3.7 km/h 88 % 0 mm
01:19 10.6 °C 8.7 °C 1018.5 hPa SSE 2.7 km/h 6.4 km/h 88 % 0 mm
01:24 10.6 °C 8.7 °C 1018.5 hPa SSE 3.9 km/h 8 km/h 88 % 0 mm
01:29 10.5 °C 8.6 °C 1018.2 hPa SSE 2.4 km/h 6.4 km/h 88 % 0 mm
01:34 10.5 °C 8.8 °C 1018.2 hPa SSE 3.2 km/h 5.6 km/h 89 % 0 mm
01:39 10.5 °C 8.6 °C 1018.2 hPa SSE 3.4 km/h 8 km/h 88 % 0 mm
01:44 10.4 °C 8.6 °C 1018.2 hPa SSE 4.7 km/h 5.6 km/h 88 % 0 mm
01:49 10.4 °C 8.7 °C 1018.2 hPa SSE 2.3 km/h 5.6 km/h 89 % 0 mm
01:54 10.3 °C 8.6 °C 1018.2 hPa SSE 1.1 km/h 3.7 km/h 89 % 0 mm
01:59 10.3 °C 8.6 °C 1018.2 hPa SSE 4 km/h 7.4 km/h 89 % 0 mm
02:04 10.3 °C 8.6 °C 1018.2 hPa SSE 5.8 km/h 9.3 km/h 89 % 0 mm
02:09 10.3 °C 8.6 °C 1018.2 hPa SSE 4.8 km/h 6.4 km/h 89 % 0 mm
02:14 10.3 °C 8.6 °C 1018.2 hPa SSE 3.9 km/h 5.6 km/h 89 % 0 mm
02:19 10.2 °C 8.5 °C 1018.2 hPa SSE 2.9 km/h 5.6 km/h 89 % 0 mm
02:24 10.2 °C 8.4 °C 1018.2 hPa SSE 2.3 km/h 5.6 km/h 89 % 0 mm
02:29 10.1 °C 8.3 °C 1018.2 hPa Calm   1.9 km/h 89 % 0 mm
02:34 9.9 °C 8.2 °C 1018.2 hPa SSE 0.3 km/h 3.7 km/h 89 % 0 mm
02:39 9.8 °C 8.1 °C 1018.2 hPa Calm     89 % 0 mm
02:44 9.7 °C 7.9 °C 1018.2 hPa SSE 1.3 km/h 3.7 km/h 89 % 0 mm
02:49 9.7 °C 8.1 °C 1018.2 hPa Calm   1.9 km/h 90 % 0 mm
02:54 9.6 °C 8.1 °C 1018.2 hPa SSE 1.6 km/h 3.7 km/h 90 % 0 mm
02:59 9.5 °C 7.8 °C 1018.2 hPa SSE 2.9 km/h 6.4 km/h 89 % 0 mm
03:04 9.5 °C 7.9 °C 1018.2 hPa SSE 4.5 km/h 5.6 km/h 90 % 0 mm
03:09 9.5 °C 7.9 °C 1018.2 hPa SSE 1.4 km/h 5.6 km/h 90 % 0 mm
03:14 9.5 °C 7.9 °C 1017.8 hPa SSE 0.6 km/h 3.7 km/h 90 % 0 mm
03:19 9.4 °C 7.9 °C 1017.8 hPa SSE 1.3 km/h 3.7 km/h 90 % 0 mm
03:24 9.4 °C 7.8 °C 1018.2 hPa Calm     90 % 0 mm
03:29 9.4 °C 8 °C 1017.8 hPa SSE 2.1 km/h 5.6 km/h 91 % 0 mm
03:34 9.3 °C 7.8 °C 1017.8 hPa Calm     90 % 0 mm
03:39 9.2 °C 7.7 °C 1017.8 hPa Calm   1.6 km/h 90 % 0 mm
03:44 9.2 °C 7.8 °C 1017.8 hPa SSE 2.9 km/h 3.7 km/h 91 % 0 mm
03:49 9.2 °C 7.8 °C 1017.8 hPa SSE 2.6 km/h 5.6 km/h 91 % 0 mm
03:54 9.1 °C 7.7 °C 1017.8 hPa SSE 1.3 km/h 3.7 km/h 91 % 0 mm
03:59 8.9 °C 7.6 °C 1017.8 hPa Calm   1.9 km/h 91 % 0 mm
04:04 8.8 °C 7.3 °C 1017.5 hPa Calm     90 % 0 mm
04:09 8.7 °C 7.3 °C 1017.5 hPa Calm     91 % 0 mm
04:14 8.7 °C 7.3 °C 1017.5 hPa Calm     91 % 0 mm
04:19 8.9 °C 7.7 °C 1017.5 hPa Calm   3.7 km/h 92 % 0 mm
04:24 8.9 °C 7.7 °C 1017.5 hPa Calm     92 % 0 mm
04:29 8.9 °C 7.7 °C 1017.5 hPa Calm     92 % 0 mm
04:34 8.8 °C 7.4 °C 1017.5 hPa Calm     91 % 0 mm
04:39 8.8 °C 7.6 °C 1017.5 hPa Calm     92 % 0 mm
04:44 9 °C 7.8 °C 1017.5 hPa SSE 5.8 km/h 5.8 km/h 92 % 0 mm
04:49 9 °C 7.8 °C 1017.2 hPa SSE 4.5 km/h 5.6 km/h 92 % 0 mm
04:54 8.9 °C 7.7 °C 1017.5 hPa SSE 2.6 km/h 5.6 km/h 92 % 0 mm
04:59 8.9 °C 7.7 °C 1017.5 hPa SSE 2.3 km/h 3.7 km/h 92 % 0 mm
05:04 8.8 °C 7.6 °C 1017.5 hPa SSE 4 km/h 5.6 km/h 92 % 0 mm
05:09 8.7 °C 7.4 °C 1017.5 hPa SSE 1.6 km/h 3.7 km/h 92 % 0 mm
05:14 8.7 °C 7.4 °C 1017.2 hPa SSE 1.9 km/h 7.4 km/h 92 % 0 mm
05:19 8.7 °C 7.7 °C 1017.5 hPa SSE 1.9 km/h 5.6 km/h 93 % 0 mm
05:24 8.8 °C 7.7 °C 1017.2 hPa SSE 2.1 km/h 5.6 km/h 93 % 0 mm
05:29 8.9 °C 7.9 °C 1017.2 hPa SSE 1.8 km/h 3.7 km/h 93 % 0 mm
05:34 9 °C 7.9 °C 1017.2 hPa SSE 0.2 km/h 3.7 km/h 93 % 0 mm
05:39 9 °C 7.9 °C 1017.2 hPa Calm     93 % 0 mm
05:44 9 °C 7.9 °C 1017.2 hPa SSE 2.6 km/h 3.7 km/h 93 % 0 mm
05:49 8.9 °C 7.9 °C 1017.2 hPa SSE 2.4 km/h 3.7 km/h 93 % 0 mm
05:54 8.9 °C 7.8 °C 1017.2 hPa SSE 1.9 km/h 3.7 km/h 93 % 0 mm
05:59 8.8 °C 7.7 °C 1017.2 hPa North 3.5 km/h 5.6 km/h 93 % 0 mm
06:04 8.8 °C 7.7 °C 1017.2 hPa SSE 4.7 km/h 5.6 km/h 93 % 0 mm
06:09 8.8 °C 7.7 °C 1017.2 hPa SSE 2.4 km/h 5.6 km/h 93 % 0 mm
06:14 8.8 °C 7.7 °C 1017.2 hPa SSE 5.3 km/h 8 km/h 93 % 0 mm
06:19 8.8 °C 7.8 °C 1017.2 hPa SSE 1.8 km/h 7.4 km/h 93 % 0 mm
06:24 8.8 °C 7.7 °C 1017.2 hPa SSE 2.3 km/h 5.6 km/h 93 % 0 mm
06:29 8.9 °C 7.8 °C 1017.2 hPa SSE 1.9 km/h 5.6 km/h 93 % 0 mm
06:34 8.9 °C 8.1 °C 1016.8 hPa North 5.8 km/h 7.4 km/h 94 % 0 mm
06:39 9 °C 8.1 °C 1016.8 hPa SSE 4.2 km/h 5.6 km/h 94 % 0 mm
06:44 9.1 °C 8.2 °C 1016.8 hPa SSE 3.9 km/h 6.4 km/h 94 % 0 mm
06:49 9 °C 8.1 °C 1016.8 hPa SSE 6 km/h 7.4 km/h 94 % 0.25 mm
06:54 9.2 °C 8.3 °C 1016.8 hPa SSE 6.6 km/h 9.3 km/h 94 % 0.25 mm
06:59 9.2 °C 8.3 °C 1016.8 hPa SSE 3.9 km/h 6.4 km/h 94 % 0.25 mm
07:04 9.3 °C 8.4 °C 1016.8 hPa SSE 6.8 km/h 9.3 km/h 94 % 0.25 mm
07:06 9.3 °C 8.4 °C 1016.8 hPa North 5 km/h 5.6 km/h 94 % 0.25 mm
07:11 9.3 °C 8.4 °C 1016.8 hPa SSE 7.7 km/h 11.1 km/h 94 % 0.25 mm
07:16 9.3 °C 8.4 °C 1016.8 hPa SSE 3.7 km/h 7.4 km/h 94 % 0.25 mm
07:21 9.2 °C 8.3 °C 1016.8 hPa SSE 3.2 km/h 5.6 km/h 94 % 0.25 mm
07:26 9.2 °C 8.3 °C 1016.8 hPa North 5.8 km/h 9.3 km/h 94 % 0.25 mm
07:31 9.3 °C 8.4 °C 1017.2 hPa SSE 2.1 km/h 7.4 km/h 94 % 0.25 mm
07:36 9.3 °C 8.4 °C 1017.2 hPa North 2.4 km/h 7.4 km/h 94 % 0.25 mm
07:41 9.2 °C 8.3 °C 1017.2 hPa SSE 3.2 km/h 5.6 km/h 94 % 0.25 mm
07:46 9.2 °C 8.3 °C 1017.2 hPa North 7.2 km/h 9.3 km/h 94 % 0.25 mm
07:51 9.3 °C 8.4 °C 1017.2 hPa North 4.3 km/h 6.4 km/h 94 % 0 mm
07:57 9.3 °C 8.4 °C 1017.2 hPa North 1.6 km/h 3.7 km/h 94 % 0 mm
08:02 9.2 °C 8.3 °C 1017.2 hPa North 3.9 km/h 7.4 km/h 94 % 0 mm
08:07 9.2 °C 8.3 °C 1017.2 hPa SSE 2.3 km/h 2.3 km/h 94 % 0 mm
08:12 9.3 °C 8.4 °C 1017.2 hPa SSE 1.9 km/h 5.6 km/h 94 % 0 mm
08:17 9.4 °C 8.4 °C 1017.2 hPa North 5.3 km/h 9.3 km/h 94 % 0 mm
08:22 9.5 °C 8.6 °C 1017.2 hPa North 1.6 km/h 5.6 km/h 94 % 0 mm
08:27 9.7 °C 8.7 °C 1017.2 hPa North 2.7 km/h 5.6 km/h 94 % 0 mm
08:32 9.8 °C 8.8 °C 1017.2 hPa SSE 4.3 km/h 6.4 km/h 94 % 0 mm
08:37 9.9 °C 8.9 °C 1017.5 hPa SSE 3.5 km/h 5.6 km/h 94 % 0 mm
08:42 10 °C 9.1 °C 1017.5 hPa North 0.5 km/h 3.7 km/h 94 % 0 mm
08:47 10.2 °C 9.2 °C 1017.5 hPa North 3.4 km/h 7.4 km/h 94 % 0 mm
08:52 10.2 °C 9.1 °C 1017.5 hPa North 3.1 km/h 5.6 km/h 93 % 0 mm
08:57 10.4 °C 9.5 °C 1017.5 hPa SSE 0.2 km/h 1.9 km/h 94 % 0 mm
09:02 10.8 °C 9.8 °C 1017.5 hPa SSE 0.6 km/h   94 % 0 mm
09:07 10.9 °C 9.8 °C 1017.8 hPa SSE 0.5 km/h 3.7 km/h 93 % 0 mm
09:12 11.2 °C 10.1 °C 1017.8 hPa SSE 0.3 km/h 3.2 km/h 93 % 0 mm
09:17 11.6 °C 10.3 °C 1017.8 hPa SSE 3.5 km/h 3.7 km/h 92 % 0 mm
09:22 11.6 °C 10.2 °C 1017.8 hPa North 2.4 km/h 4.8 km/h 91 % 0 mm
09:27 12.2 °C 10.6 °C 1017.8 hPa North 1.3 km/h 3.7 km/h 90 % 0 mm
09:32 12.4 °C 10.3 °C 1018.2 hPa Calm   1.9 km/h 87 % 0 mm
09:37 12.6 °C 10.5 °C 1017.8 hPa SSE 4.7 km/h 6.4 km/h 87 % 0 mm
09:42 13 °C 10.6 °C 1017.8 hPa SSE 0.5 km/h 3.7 km/h 85 % 0 mm
09:47 13.1 °C 10.3 °C 1017.8 hPa SSE 2.6 km/h 5.6 km/h 83 % 0 mm
09:52 12.9 °C 9.9 °C 1018.2 hPa SSE 4.2 km/h 7.4 km/h 82 % 0 mm
09:57 12.8 °C 9.7 °C 1018.2 hPa SSE 3.4 km/h 5.6 km/h 81 % 0 mm
10:02 12.9 °C 9.9 °C 1018.2 hPa SSE 5.3 km/h 9.3 km/h 82 % 0 mm
10:07 13.3 °C 10.3 °C 1018.2 hPa SSE 2.3 km/h 3.7 km/h 82 % 0 mm
10:12 13.7 °C 10.2 °C 1017.8 hPa SSE 3.7 km/h 6.4 km/h 79 % 0 mm
10:17 13.8 °C 9.8 °C 1017.8 hPa SSE 2.6 km/h 5.6 km/h 77 % 0 mm
10:22 13.9 °C 10.1 °C 1017.8 hPa SSE 5.6 km/h 6.4 km/h 78 % 0 mm
10:27 14.5 °C 10.3 °C 1017.8 hPa SSE 0.2 km/h 1.9 km/h 76 % 0 mm
10:32 15 °C 10.2 °C 1017.8 hPa SSE 0.2 km/h 1.6 km/h 73 % 0 mm
10:37 15.5 °C 10.1 °C 1017.8 hPa SSE 1 km/h 3.7 km/h 70 % 0 mm
10:42 15.7 °C 10.3 °C 1017.8 hPa SSE 2.3 km/h 5.6 km/h 70 % 0 mm
10:47 16 °C 9.7 °C 1017.8 hPa SSE 4 km/h 5.6 km/h 66 % 0 mm
10:52 15.9 °C 9.8 °C 1017.8 hPa SSE 4 km/h 7.4 km/h 67 % 0 mm
10:57 16.1 °C 9.2 °C 1017.8 hPa SSE 1.3 km/h 3.7 km/h 64 % 0 mm
11:02 16.2 °C 9.3 °C 1017.5 hPa SSE 1.4 km/h 3.7 km/h 64 % 0 mm
11:07 16.9 °C 9.6 °C 1017.8 hPa SSE 4.2 km/h 6.4 km/h 62 % 0 mm
11:12 16.6 °C 9.1 °C 1017.8 hPa SSE 4.2 km/h 7.4 km/h 61 % 0 mm
11:17 16.7 °C 9.7 °C 1017.5 hPa SSE 7.6 km/h 13 km/h 63 % 0 mm
11:22 17.3 °C 9.4 °C 1017.8 hPa SSE 0.3 km/h 1.9 km/h 60 % 0 mm
11:27 17.3 °C 9.5 °C 1017.8 hPa SSE 1.9 km/h 3.7 km/h 60 % 0 mm
11:32 17.7 °C 9.6 °C 1017.8 hPa SSE 5 km/h 8 km/h 59 % 0 mm
11:37 17.6 °C 9.2 °C 1017.8 hPa West 15 km/h 20.4 km/h 58 % 0 mm
11:42 17.6 °C 9.2 °C 1017.8 hPa West 11.9 km/h 16.7 km/h 58 % 0 mm
11:47 17.2 °C 9.1 °C 1017.8 hPa West 9.5 km/h 16.7 km/h 59 % 0 mm
11:52 17.1 °C 9.1 °C 1017.5 hPa West 14.5 km/h 20.4 km/h 59 % 0 mm
11:57 17.3 °C 9.2 °C 1017.5 hPa WNW 8.5 km/h 11.1 km/h 59 % 0 mm
12:02 17.5 °C 9.2 °C 1017.5 hPa WNW 10.9 km/h 14.8 km/h 58 % 0 mm
12:07 17.5 °C 9.2 °C 1017.5 hPa NW 9.2 km/h 13 km/h 58 % 0 mm
12:12 17.7 °C 9.3 °C 1017.5 hPa NNW 5.5 km/h 9.3 km/h 58 % 0 mm
12:17 17.8 °C 9.4 °C 1017.5 hPa West 11.4 km/h 16.7 km/h 58 % 0 mm
12:22 17.9 °C 9 °C 1017.2 hPa WNW 10 km/h 20.9 km/h 56 % 0 mm
12:27 18.1 °C 8.9 °C 1017.2 hPa NNW 13.2 km/h 20.4 km/h 55 % 0 mm
12:32 18.1 °C 8.3 °C 1017.2 hPa WNW 13.5 km/h 18.5 km/h 53 % 0 mm
12:37 18.1 °C 8.3 °C 1017.2 hPa WNW 12.1 km/h 20.4 km/h 53 % 0 mm
12:42 18.2 °C 8.7 °C 1016.8 hPa WNW 8.7 km/h 13 km/h 54 % 0 mm
12:47 18.4 °C 8.7 °C 1016.8 hPa WNW 12.7 km/h 16.7 km/h 53 % 0 mm
12:52 18.4 °C 7.5 °C 1016.8 hPa NW 11.7 km/h 16.7 km/h 49 % 0 mm
12:57 18.6 °C 7.9 °C 1016.8 hPa WNW 10.6 km/h 18.5 km/h 50 % 0 mm
13:02 18.8 °C 8.4 °C 1016.5 hPa West 4.8 km/h 7.4 km/h 51 % 0 mm
13:07 19.1 °C 8.4 °C 1016.5 hPa WNW 2.7 km/h 5.6 km/h 50 % 0 mm
13:12 19.1 °C 7.8 °C 1016.5 hPa WNW 14.6 km/h 18.5 km/h 48 % 0 mm
13:17 19.2 °C 7.9 °C 1016.5 hPa WNW 3.9 km/h 5.6 km/h 48 % 0 mm
13:22 19.7 °C 8.1 °C 1016.5 hPa WNW 8.7 km/h 11.1 km/h 47 % 0 mm
13:27 19.6 °C 7.3 °C 1016.5 hPa NW 13.2 km/h 18.5 km/h 45 % 0 mm
13:32 19.3 °C 7.1 °C 1016.1 hPa NW 10.3 km/h 14.8 km/h 45 % 0 mm
13:37 19.3 °C 6.7 °C 1016.1 hPa NW 6.6 km/h 11.1 km/h 44 % 0 mm
13:42 19.4 °C 6.8 °C 1016.1 hPa NW 4.3 km/h 9.3 km/h 44 % 0 mm
13:47 19.7 °C 6.8 °C 1016.1 hPa WNW 12.2 km/h 18.5 km/h 43 % 0 mm
13:52 19.8 °C 7.2 °C 1015.8 hPa WNW 4.5 km/h 7.4 km/h 44 % 0 mm
13:57 20.3 °C 6.2 °C 1015.8 hPa WNW 9.2 km/h 14.8 km/h 40 % 0 mm
14:02 20.1 °C 6.8 °C 1015.8 hPa WNW 15.3 km/h 20.4 km/h 42 % 0 mm
14:07 20.1 °C 7.1 °C 1015.8 hPa WNW 5.3 km/h 11.1 km/h 43 % 0 mm
14:12 20.5 °C 7.5 °C 1015.8 hPa WNW 7.9 km/h 14.8 km/h 43 % 0 mm
14:17 20.3 °C 8 °C 1015.5 hPa NNW 9 km/h 14.8 km/h 45 % 0 mm
14:22 20.7 °C 6.9 °C 1015.5 hPa North 5.1 km/h 9.3 km/h 41 % 0 mm
14:27 20.6 °C 6.6 °C 1015.1 hPa West 6.3 km/h 11.1 km/h 40 % 0 mm
14:32 20.5 °C 6.4 °C 1015.1 hPa WNW 4.7 km/h 7.4 km/h 40 % 0 mm
14:37 20.8 °C 6.7 °C 1015.1 hPa WNW 3.7 km/h 6.4 km/h 40 % 0 mm
14:42 21.4 °C 7.2 °C 1015.1 hPa WNW 2.9 km/h 5.6 km/h 40 % 0 mm
14:47 21.3 °C 6.8 °C 1015.1 hPa WNW 10.8 km/h 16.7 km/h 39 % 0 mm
14:52 21.2 °C 7.1 °C 1015.1 hPa WNW 5.6 km/h 9.7 km/h 40 % 0 mm
14:57 21.2 °C 7.4 °C 1014.8 hPa NW 12.4 km/h 16.7 km/h 41 % 0 mm
15:02 21.2 °C 7.4 °C 1014.8 hPa NW 2.4 km/h 5.6 km/h 41 % 0 mm
15:07 21.2 °C 7 °C 1014.4 hPa WNW 10.9 km/h 13 km/h 40 % 0 mm
15:12 21 °C 6.9 °C 1014.4 hPa NW 10.1 km/h 14.8 km/h 40 % 0 mm
15:17 21.1 °C 7 °C 1014.4 hPa NW 7.1 km/h 9.3 km/h 40 % 0 mm
15:22 21.3 °C 6.4 °C 1014.4 hPa WNW 4.2 km/h 5.6 km/h 38 % 0 mm
15:27 21.7 °C 6.7 °C 1014.4 hPa WNW 6.4 km/h 9.3 km/h 38 % 0 mm
15:32 22.2 °C 7.2 °C 1014.4 hPa NW 7.2 km/h 11.1 km/h 38 % 0 mm
15:37 22.2 °C 6.8 °C 1014.4 hPa NW 4.2 km/h 8 km/h 37 % 0 mm
15:42 21.9 °C 7.3 °C 1014.4 hPa WNW 5.5 km/h 7.4 km/h 39 % 0 mm
15:47 22.2 °C 7.2 °C 1014.4 hPa WNW 3.4 km/h 5.6 km/h 38 % 0 mm
15:52 22.3 °C 6.5 °C 1014.4 hPa WNW 4.7 km/h 5.6 km/h 36 % 0 mm
15:57 22.3 °C 6.5 °C 1014.4 hPa WNW 7.1 km/h 11.1 km/h 36 % 0 mm
16:02 21.9 °C 6.9 °C 1014.4 hPa NW 7.4 km/h 9.7 km/h 38 % 0 mm
16:07 21.8 °C 6.4 °C 1014.4 hPa WNW 0.6 km/h 3.7 km/h 37 % 0 mm
16:12 22.1 °C 7.1 °C 1014.4 hPa North 6.9 km/h 8 km/h 38 % 0 mm
16:17 22.2 °C 6.8 °C 1014.4 hPa WNW 1.8 km/h 5.6 km/h 37 % 0 mm
16:22 22.3 °C 8 °C 1014.1 hPa WNW 7.6 km/h 11.1 km/h 40 % 0 mm
16:27 22.4 °C 8.1 °C 1014.1 hPa WNW 5.1 km/h 6.4 km/h 40 % 0 mm
16:32 22.2 °C 7.6 °C 1014.1 hPa WNW 0.2 km/h 1.9 km/h 39 % 0 mm
16:37 22.6 °C 7.9 °C 1014.1 hPa WNW 0.3 km/h 1.9 km/h 39 % 0 mm
16:42 22.9 °C 7.4 °C 1013.8 hPa WNW 3.1 km/h 7.4 km/h 37 % 0 mm
16:47 22.8 °C 7.3 °C 1013.8 hPa NNW 6.3 km/h 9.3 km/h 37 % 0 mm
16:52 22.8 °C 7.3 °C 1014.1 hPa NNE 10.1 km/h 20.4 km/h 37 % 0 mm
16:57 22.4 °C 7 °C 1013.8 hPa NNE 7.1 km/h 9.3 km/h 37 % 0 mm
17:02 22.3 °C 6.9 °C 1013.8 hPa NNE 0.8 km/h 3.7 km/h 37 % 0 mm
17:07 22.3 °C 6.9 °C 1013.8 hPa NNE 9.2 km/h 13 km/h 37 % 0 mm
17:12 22.3 °C 7.3 °C 1013.8 hPa North 2.6 km/h 7.4 km/h 38 % 0 mm
17:17 22.5 °C 7.1 °C 1014.1 hPa North 8 km/h 11.1 km/h 37 % 0 mm
17:22 22.4 °C 7 °C 1014.1 hPa North 4.3 km/h 7.4 km/h 37 % 0 mm
17:27 22.3 °C 6.5 °C 1014.1 hPa NNW 1.4 km/h 5.6 km/h 36 % 0 mm
17:32 22.4 °C 6.6 °C 1014.1 hPa NNW 5.5 km/h 9.3 km/h 36 % 0 mm
17:37 22.5 °C 6.7 °C 1014.1 hPa NNW 8.5 km/h 13 km/h 36 % 0 mm
17:42 22.3 °C 6.5 °C 1014.1 hPa North 6.3 km/h 8 km/h 36 % 0 mm
17:47 22.3 °C 6.5 °C 1014.1 hPa North 4.7 km/h 8 km/h 36 % 0 mm
17:52 22.2 °C 6.4 °C 1014.1 hPa North 3.2 km/h 9.3 km/h 36 % 0 mm
17:57 22.2 °C 6.4 °C 1014.1 hPa North 7.2 km/h 11.1 km/h 36 % 0 mm
18:02 22.2 °C 6.4 °C 1014.1 hPa North 5.8 km/h 7.4 km/h 36 % 0 mm
18:07 22.1 °C 6.3 °C 1013.8 hPa North 8.2 km/h 14.8 km/h 36 % 0 mm
18:12 21.9 °C 6.6 °C 1013.8 hPa North 5 km/h 9.7 km/h 37 % 0 mm
18:17 21.9 °C 6.2 °C 1013.8 hPa North 9.2 km/h 13 km/h 36 % 0 mm
18:22 21.8 °C 6.5 °C 1013.8 hPa North 4.7 km/h 7.4 km/h 37 % 0 mm
18:27 21.8 °C 6.5 °C 1013.8 hPa North 4 km/h 5.6 km/h 37 % 0 mm
18:32 21.7 °C 6.4 °C 1013.8 hPa North 4.5 km/h 5.6 km/h 37 % 0 mm
18:37 21.6 °C 6.3 °C 1014.1 hPa North 4.7 km/h 5.6 km/h 37 % 0 mm
18:42 21.5 °C 6.2 °C 1014.1 hPa North 6.1 km/h 9.3 km/h 37 % 0 mm
18:47 21.3 °C 6.4 °C 1014.1 hPa North 1.9 km/h 5.6 km/h 38 % 0 mm
18:52 21.2 °C 6.3 °C 1014.1 hPa North 5.6 km/h 7.4 km/h 38 % 0 mm
18:57 21 °C 6.1 °C 1014.1 hPa North 5 km/h 5.6 km/h 38 % 0 mm
19:02 20.8 °C 6.3 °C 1014.1 hPa North 3.2 km/h 3.7 km/h 39 % 0 mm
19:07 20.5 °C 6.4 °C 1013.8 hPa North 1.4 km/h 5.6 km/h 40 % 0 mm
19:12 20.2 °C 6.6 °C 1014.1 hPa North 0.3 km/h 3.7 km/h 41 % 0 mm
19:17 20 °C 6.3 °C 1014.1 hPa North 0.6 km/h 3.2 km/h 41 % 0 mm
19:22 19.7 °C 6.4 °C 1014.1 hPa North 0.5 km/h 1.9 km/h 42 % 0 mm
19:27 19.4 °C 6.9 °C 1014.1 hPa North 4 km/h 5.6 km/h 44 % 0 mm
19:32 18.9 °C 6.7 °C 1014.1 hPa North 2.9 km/h 3.7 km/h 45 % 0 mm
19:37 18.6 °C 6.7 °C 1014.1 hPa North 1.6 km/h 5.6 km/h 46 % 0 mm
19:42 18.3 °C 6.8 °C 1014.1 hPa Calm     47 % 0 mm
19:47 17.9 °C 7 °C 1014.1 hPa Calm     49 % 0 mm
19:52 17.3 °C 6.8 °C 1014.4 hPa Calm     50 % 0 mm
19:57 16.9 °C 6.9 °C 1014.4 hPa Calm     52 % 0 mm
20:02 16.6 °C 7 °C 1014.4 hPa Calm     53 % 0 mm
20:07 16.4 °C 7.1 °C 1014.4 hPa Calm     54 % 0 mm
20:12 16.2 °C 7.1 °C 1014.4 hPa Calm     55 % 0 mm
20:17 15.9 °C 7.4 °C 1014.4 hPa North 0.3 km/h 3.2 km/h 57 % 0 mm
20:22 15.8 °C 7.6 °C 1014.4 hPa North 1.8 km/h 3.7 km/h 58 % 0 mm
20:27 15.8 °C 7.5 °C 1014.4 hPa Calm     58 % 0 mm
20:32 15.6 °C 7.4 °C 1014.4 hPa Calm     58 % 0 mm
20:37 15.5 °C 7.5 °C 1014.4 hPa Calm     59 % 0 mm
20:38 15.5 °C 7.5 °C 1014.4 hPa Calm     59 % 0 mm
20:43 15.3 °C 7.3 °C 1014.4 hPa Calm     59 % 0 mm
20:48 15.1 °C 7.4 °C 1014.4 hPa Calm     60 % 0 mm
20:53 14.8 °C 7.3 °C 1014.4 hPa Calm     61 % 0 mm
20:58 14.4 °C 7.4 °C 1014.4 hPa Calm     63 % 0 mm
21:03 14.3 °C 7.6 °C 1014.4 hPa Calm     64 % 0 mm
21:08 14.2 °C 7.5 °C 1014.4 hPa Calm     64 % 0 mm
21:13 14.2 °C 7.5 °C 1014.4 hPa Calm     64 % 0 mm
21:18 14.2 °C 7.5 °C 1014.4 hPa Calm     64 % 0 mm
21:23 14.2 °C 7.7 °C 1014.4 hPa Calm     65 % 0 mm
21:28 14 °C 7.5 °C 1014.4 hPa Calm     65 % 0 mm
21:33 13.7 °C 7.5 °C 1014.1 hPa Calm     66 % 0 mm
21:38 13.4 °C 7.4 °C 1014.4 hPa Calm     67 % 0 mm
21:43 13.2 °C 7.4 °C 1014.4 hPa North 2.3 km/h 3.7 km/h 68 % 0 mm
21:48 13.1 °C 7.5 °C 1014.4 hPa North 2.6 km/h 3.7 km/h 69 % 0 mm
21:53 13.1 °C 7.5 °C 1014.4 hPa North 1.9 km/h 3.7 km/h 69 % 0 mm
21:58 13 °C 7.4 °C 1014.4 hPa Calm     69 % 0 mm
22:03 12.8 °C 7.3 °C 1014.4 hPa North 1.8 km/h 3.7 km/h 69 % 0 mm
22:08 12.8 °C 7.4 °C 1014.4 hPa Calm   1.9 km/h 70 % 0 mm
22:13 12.7 °C 7.4 °C 1014.4 hPa Calm     70 % 0 mm
22:18 12.6 °C 7.3 °C 1014.8 hPa Calm     70 % 0 mm
22:23 12.5 °C 7.2 °C 1014.8 hPa Calm     70 % 0 mm
22:28 12.6 °C 7.2 °C 1014.8 hPa Calm     70 % 0 mm
22:33 12.7 °C 7.3 °C 1014.8 hPa Calm     70 % 0 mm
22:38 12.6 °C 7.2 °C 1014.8 hPa North 1.9 km/h 3.7 km/h 70 % 0 mm
22:43 12.4 °C 7.1 °C 1014.8 hPa Calm     70 % 0 mm
22:48 12.3 °C 7 °C 1014.8 hPa Calm     70 % 0 mm
22:53 12.2 °C 7.1 °C 1014.4 hPa Calm     71 % 0 mm
22:58 12.3 °C 7.2 °C 1014.4 hPa North 2.4 km/h 3.7 km/h 71 % 0 mm
23:03 12.2 °C 7.1 °C 1014.1 hPa North 0.8 km/h 3.7 km/h 71 % 0 mm
23:08 11.9 °C 6.8 °C 1014.4 hPa Calm     71 % 0 mm
23:13 11.7 °C 6.6 °C 1014.4 hPa Calm     71 % 0 mm
23:18 11.5 °C 6.4 °C 1014.1 hPa Calm     71 % 0 mm
23:19 11.5 °C 6.4 °C 1014.1 hPa Calm     71 % 0 mm
23:24 11.3 °C 6.4 °C 1014.1 hPa Calm     72 % 0 mm
23:29 11.1 °C 6.3 °C 1014.1 hPa Calm     72 % 0 mm
23:34 10.9 °C 6.2 °C 1014.1 hPa Calm     73 % 0 mm
23:41 10.8 °C 6.3 °C 1014.1 hPa Calm     74 % 0 mm
23:46 10.7 °C 6.4 °C 1014.1 hPa North 4.3 km/h 6.4 km/h 75 % 0 mm
23:51 10.7 °C 6.6 °C 1014.1 hPa Calm     76 % 0 mm
23:56 10.6 °C 6.6 °C 1014.1 hPa Calm     76 % 0 mm
Ararat Weather
Compliments of Weather Underground - 2.5 mb
Click here to send mail.


ABOUT

Live weather data from Ararat, Victoria, Australia, 3377
Data uploaded from Cumulus every 5 minutes to Weather Underground.
This site then downloads the raw data for formatting and display.
Metric and imperial data can be displayed. Graphs and historical data available.
Includes Sun and Moon times and rain image live from BOM.

Check out Ararat Weather on Facebook, Twitter and Google +

Help support ongoing costs by checking out the ads





Follow @AraratWeather